createdAt,value
2018-12-17T00:01:51.768Z,25.97
2018-12-17T00:04:20.263Z,25.20
2018-12-17T00:06:48.875Z,25.50
2018-12-17T00:09:17.357Z,23.07
2018-12-17T00:11:45.979Z,26.30
2018-12-17T00:14:14.623Z,24.37
2018-12-17T00:16:43.099Z,25.37
2018-12-17T00:19:11.625Z,26.60
2018-12-17T00:21:40.109Z,22.27
2018-12-17T00:24:08.618Z,23.50
2018-12-17T00:26:37.170Z,25.10
2018-12-17T00:29:05.786Z,20.43
2018-12-17T00:31:34.323Z,22.13
2018-12-17T00:34:02.889Z,23.27
2018-12-17T00:36:31.302Z,20.90
2018-12-17T00:38:59.810Z,21.77
2018-12-17T00:41:28.244Z,21.70
2018-12-17T00:43:56.735Z,19.17
2018-12-17T00:46:25.189Z,20.20
2018-12-17T00:48:53.781Z,21.10
2018-12-17T00:51:22.607Z,22.50
2018-12-17T00:53:51.156Z,20.30
2018-12-17T00:56:20.562Z,18.83
2018-12-17T00:58:49.076Z,23.20
2018-12-17T01:01:17.638Z,18.57
2018-12-17T01:03:46.099Z,17.43
2018-12-17T01:06:14.598Z,22.63
2018-12-17T01:08:44.090Z,19.30
2018-12-17T01:11:12.591Z,19.93
2018-12-17T01:13:41.088Z,17.97
2018-12-17T01:16:10.085Z,17.53
2018-12-17T01:18:39.134Z,18.67
2018-12-17T01:21:07.706Z,16.87
2018-12-17T01:23:36.240Z,17.53
2018-12-17T01:26:04.872Z,17.27
2018-12-17T01:28:33.789Z,15.00
2018-12-17T01:31:02.359Z,17.37
2018-12-17T01:33:30.866Z,15.67
2018-12-17T01:35:59.559Z,16.97
2018-12-17T01:38:28.045Z,16.60
2018-12-17T01:40:56.768Z,17.73
2018-12-17T01:43:25.265Z,16.00
2018-12-17T01:45:54.951Z,15.93
2018-12-17T01:48:23.403Z,17.20
2018-12-17T01:50:51.955Z,17.07
2018-12-17T01:53:20.482Z,16.33
2018-12-17T01:55:49.211Z,19.57
2018-12-17T01:58:17.661Z,15.33
2018-12-17T02:00:46.839Z,17.97
2018-12-17T02:03:16.086Z,17.63
2018-12-17T02:05:44.672Z,15.67
2018-12-17T02:08:13.254Z,16.73
2018-12-17T02:10:41.806Z,17.40
2018-12-17T02:13:10.342Z,16.13
2018-12-17T02:15:38.976Z,18.83
2018-12-17T02:18:07.592Z,17.40
2018-12-17T02:20:36.205Z,21.77
2018-12-17T02:23:04.711Z,15.83
2018-12-17T02:25:33.185Z,18.00
2018-12-17T02:28:01.712Z,17.33
2018-12-17T02:30:30.773Z,15.53
2018-12-17T02:32:59.554Z,19.27
2018-12-17T02:35:28.182Z,16.80
2018-12-17T02:37:57.116Z,17.40
2018-12-17T02:40:26.265Z,19.33
2018-12-17T02:42:54.863Z,15.67
2018-12-17T02:45:23.406Z,17.93
2018-12-17T02:47:52.026Z,19.30
2018-12-17T02:50:20.548Z,20.07
2018-12-17T02:52:49.226Z,18.83
2018-12-17T02:55:17.839Z,17.37
2018-12-17T02:57:46.430Z,16.13
2018-12-17T03:00:15.292Z,19.50
2018-12-17T03:02:44.360Z,22.37
2018-12-17T03:05:13.078Z,20.57
2018-12-17T03:07:42.628Z,18.20
2018-12-17T03:10:12.195Z,24.50
2018-12-17T03:12:40.755Z,17.77
2018-12-17T03:15:09.443Z,16.73
2018-12-17T03:17:38.288Z,18.43
2018-12-17T03:20:07.086Z,21.00
2018-12-17T03:22:35.790Z,20.50
2018-12-17T03:25:04.805Z,17.97
2018-12-17T03:27:33.848Z,17.83
2018-12-17T03:30:03.377Z,30.30
2018-12-17T03:32:33.234Z,38.10
2018-12-17T03:35:02.486Z,68.40
2018-12-17T03:37:31.261Z,35.80
2018-12-17T03:39:59.806Z,25.20
2018-12-17T03:42:29.130Z,23.97
2018-12-17T03:44:57.751Z,19.20
2018-12-17T03:47:26.702Z,18.90
2018-12-17T03:49:55.347Z,19.27
2018-12-17T03:52:25.636Z,15.00
2018-12-17T03:54:55.220Z,17.43
2018-12-17T03:57:23.926Z,16.17
2018-12-17T03:59:52.705Z,18.90
2018-12-17T04:02:21.246Z,14.93
2018-12-17T04:04:50.224Z,12.17
2018-12-17T04:07:19.131Z,16.07
2018-12-17T04:09:49.000Z,18.37
2018-12-17T04:12:17.750Z,15.17
2018-12-17T04:14:46.609Z,17.20
2018-12-17T04:17:15.772Z,14.80
2018-12-17T04:19:44.760Z,15.53
2018-12-17T04:22:13.336Z,15.23
2018-12-17T04:24:42.179Z,17.13
2018-12-17T04:27:10.900Z,15.60
2018-12-17T04:29:39.452Z,15.63
2018-12-17T04:32:08.344Z,14.50
2018-12-17T04:34:36.944Z,13.67
2018-12-17T04:37:05.792Z,15.33
2018-12-17T04:39:34.371Z,13.43
2018-12-17T04:42:03.232Z,14.13
2018-12-17T04:44:31.801Z,13.60
2018-12-17T04:47:00.452Z,16.13
2018-12-17T04:49:29.207Z,11.90
2018-12-17T04:51:57.972Z,11.00
2018-12-17T04:54:27.400Z,9.83
2018-12-17T04:56:56.478Z,11.53
2018-12-17T04:59:25.187Z,14.67
2018-12-17T05:01:54.188Z,11.67
2018-12-17T05:04:22.999Z,13.10
2018-12-17T05:06:51.726Z,12.80
2018-12-17T05:09:20.540Z,8.47
2018-12-17T05:11:48.997Z,9.23
2018-12-17T05:14:17.739Z,8.63
2018-12-17T05:16:46.629Z,13.80
2018-12-17T05:19:15.488Z,11.23
2018-12-17T05:21:44.682Z,8.80
2018-12-17T05:24:13.321Z,10.37
2018-12-17T05:26:42.596Z,11.67
2018-12-17T05:29:11.278Z,10.07
2018-12-17T05:31:39.853Z,14.23
2018-12-17T05:34:08.518Z,11.57
2018-12-17T05:36:37.344Z,10.50
2018-12-17T05:39:07.346Z,9.60
2018-12-17T05:41:36.001Z,9.40
2018-12-17T05:44:05.025Z,12.53
2018-12-17T05:46:33.678Z,11.57
2018-12-17T05:49:03.571Z,12.07
2018-12-17T05:51:33.221Z,12.03
2018-12-17T05:54:01.809Z,13.57
2018-12-17T05:56:30.651Z,12.07
2018-12-17T05:58:59.360Z,9.20
2018-12-17T06:01:28.108Z,10.90
2018-12-17T06:03:56.959Z,9.90
2018-12-17T06:06:25.457Z,10.50
2018-12-17T06:08:54.484Z,11.93
2018-12-17T06:11:23.031Z,9.53
2018-12-17T06:13:51.612Z,10.87
2018-12-17T06:16:20.075Z,10.57
2018-12-17T06:18:48.591Z,12.40
2018-12-17T06:21:17.263Z,11.53
2018-12-17T06:23:45.782Z,11.83
2018-12-17T06:26:14.381Z,18.43
2018-12-17T06:28:42.860Z,12.23
2018-12-17T06:31:11.452Z,14.37
2018-12-17T06:33:39.890Z,14.77
2018-12-17T06:36:08.383Z,14.13
2018-12-17T06:38:36.915Z,14.93
2018-12-17T06:41:07.320Z,15.20
2018-12-17T06:43:35.812Z,13.83
2018-12-17T06:46:04.372Z,18.17
2018-12-17T06:48:32.887Z,17.57
2018-12-17T06:51:01.612Z,17.90
2018-12-17T06:53:30.117Z,21.80
2018-12-17T06:55:58.612Z,14.83
2018-12-17T06:58:27.224Z,16.87
2018-12-17T07:00:55.634Z,20.73
2018-12-17T07:03:24.086Z,19.17
2018-12-17T07:05:52.557Z,18.00
2018-12-17T07:08:20.988Z,17.60
2018-12-17T07:10:49.427Z,18.47
2018-12-17T07:13:17.914Z,18.93
2018-12-17T07:15:46.395Z,19.03
2018-12-17T07:18:14.932Z,16.63
2018-12-17T07:20:43.393Z,18.13
2018-12-17T07:23:11.887Z,15.47
2018-12-17T07:25:40.360Z,22.00
2018-12-17T07:28:08.855Z,22.40
2018-12-17T07:30:37.303Z,20.83
2018-12-17T07:33:06.884Z,21.87
2018-12-17T07:35:35.326Z,23.53
2018-12-17T07:38:03.845Z,23.20
2018-12-17T07:40:32.279Z,21.53
2018-12-17T07:43:00.720Z,19.80
2018-12-17T07:45:29.200Z,15.80
2018-12-17T07:47:57.661Z,24.80
2018-12-17T07:50:26.169Z,23.37
2018-12-17T07:52:54.634Z,19.43
2018-12-17T07:55:23.155Z,20.57
2018-12-17T07:57:51.619Z,18.47
2018-12-17T08:00:20.192Z,16.07
2018-12-17T08:02:48.683Z,22.30
2018-12-17T08:05:17.224Z,27.33
2018-12-17T08:07:45.682Z,26.13
2018-12-17T08:10:14.896Z,23.97
2018-12-17T08:12:43.352Z,20.17
2018-12-17T08:15:11.870Z,20.30
2018-12-17T08:17:40.531Z,25.73
2018-12-17T08:20:09.120Z,20.33
2018-12-17T08:22:40.776Z,22.53
2018-12-17T08:25:09.795Z,23.57
2018-12-17T08:27:38.334Z,25.73
2018-12-17T08:30:07.967Z,25.73
2018-12-17T08:32:36.468Z,23.57
2018-12-17T08:35:05.202Z,25.27
2018-12-17T08:37:33.634Z,24.97
2018-12-17T08:40:02.227Z,24.43
2018-12-17T08:42:30.721Z,23.07
2018-12-17T08:44:59.371Z,22.37
2018-12-17T08:47:27.809Z,26.70
2018-12-17T08:49:56.261Z,27.63
2018-12-17T08:52:24.742Z,28.13
2018-12-17T08:54:53.414Z,21.20
2018-12-17T08:57:22.362Z,21.70
2018-12-17T08:59:50.830Z,28.77
2018-12-17T09:02:19.301Z,23.07
2018-12-17T09:04:48.240Z,24.57
2018-12-17T09:07:16.732Z,23.07
2018-12-17T09:09:45.203Z,22.67
2018-12-17T09:12:13.667Z,24.80
2018-12-17T09:14:42.156Z,23.07
2018-12-17T09:17:10.706Z,22.57
2018-12-17T09:19:39.256Z,21.37
2018-12-17T09:22:07.707Z,25.83
2018-12-17T09:24:36.158Z,21.97
2018-12-17T09:27:04.824Z,23.10
2018-12-17T09:29:33.335Z,27.10
2018-12-17T09:32:01.832Z,18.53
2018-12-17T09:34:30.477Z,24.53
2018-12-17T09:36:59.045Z,21.80
2018-12-17T09:39:27.546Z,20.47
2018-12-17T09:41:56.000Z,23.80
2018-12-17T09:44:24.634Z,22.57
2018-12-17T09:46:53.131Z,17.00
2018-12-17T09:49:21.588Z,25.70
2018-12-17T09:51:50.097Z,18.70
2018-12-17T09:54:18.548Z,17.70
2018-12-17T09:56:47.134Z,17.70
2018-12-17T09:59:15.747Z,17.97
2018-12-17T10:01:44.264Z,21.80
2018-12-17T10:04:12.728Z,18.60
2018-12-17T10:06:41.314Z,15.90
2018-12-17T10:09:09.719Z,18.90
2018-12-17T10:11:38.226Z,17.57
2018-12-17T10:14:06.709Z,21.23
2018-12-17T10:16:35.145Z,18.17
2018-12-17T10:19:03.624Z,20.50
2018-12-17T10:21:32.147Z,20.27
2018-12-17T10:24:00.733Z,22.17
2018-12-17T10:26:29.443Z,20.77
2018-12-17T10:28:57.857Z,16.97
2018-12-17T10:31:26.329Z,24.43
2018-12-17T10:33:54.799Z,19.40
2018-12-17T10:36:23.278Z,21.13
2018-12-17T10:38:51.724Z,16.87
2018-12-17T10:41:20.289Z,20.03
2018-12-17T10:43:48.723Z,16.80
2018-12-17T10:46:17.221Z,14.50
2018-12-17T10:48:45.687Z,17.47
2018-12-17T10:51:14.139Z,24.23
2018-12-17T10:53:42.560Z,16.80
2018-12-17T10:56:11.032Z,16.07
2018-12-17T10:58:39.553Z,22.13
2018-12-17T11:01:13.290Z,16.47
2018-12-17T11:03:47.603Z,15.97
2018-12-17T11:06:18.819Z,16.53
2018-12-17T11:08:49.545Z,21.57
2018-12-17T11:11:18.818Z,15.30
2018-12-17T11:13:47.541Z,14.63
2018-12-17T11:16:16.987Z,14.27
2018-12-17T11:18:45.457Z,19.93
2018-12-17T11:21:13.917Z,13.90
2018-12-17T11:23:43.963Z,19.40
2018-12-17T11:26:12.440Z,16.87
2018-12-17T11:28:40.887Z,16.20
2018-12-17T11:31:09.492Z,16.03
2018-12-17T11:33:38.090Z,13.30
2018-12-17T11:36:06.558Z,13.20
2018-12-17T11:38:35.368Z,13.00
2018-12-17T11:41:03.933Z,13.20
2018-12-17T11:43:32.380Z,16.63
2018-12-17T11:46:03.304Z,12.67
2018-12-17T11:48:32.561Z,16.43
2018-12-17T11:51:01.004Z,16.07
2018-12-17T11:53:29.428Z,11.27
2018-12-17T11:55:57.849Z,12.87
2018-12-17T11:58:26.369Z,8.73
2018-12-17T12:01:03.523Z,10.07
2018-12-17T12:03:34.277Z,10.03
2018-12-17T12:06:03.169Z,10.27
2018-12-17T12:08:33.001Z,9.90
2018-12-17T12:11:01.573Z,10.83
2018-12-17T12:13:30.134Z,9.90
2018-12-17T12:15:58.581Z,11.97
2018-12-17T12:18:27.388Z,12.43
2018-12-17T12:20:55.891Z,7.90
2018-12-17T12:23:24.538Z,10.67
2018-12-17T12:25:53.247Z,6.10
2018-12-17T12:28:21.883Z,12.90
2018-12-17T12:30:50.354Z,12.37
2018-12-17T12:33:18.804Z,10.00
2018-12-17T12:36:05.638Z,8.83
2018-12-17T12:38:34.112Z,10.37
2018-12-17T12:41:02.589Z,10.67
2018-12-17T12:43:43.551Z,13.10
2018-12-17T12:46:12.058Z,8.57
2018-12-17T12:48:41.135Z,7.27
2018-12-17T12:51:09.583Z,12.03
2018-12-17T12:53:38.572Z,10.13
2018-12-17T12:56:07.052Z,9.73
2018-12-17T12:58:35.520Z,12.33
2018-12-17T13:01:07.622Z,10.63
2018-12-17T13:03:34.610Z,8.30
2018-12-17T13:06:03.101Z,14.23
2018-12-17T13:08:31.534Z,8.43
2018-12-17T13:11:00.054Z,8.73
2018-12-17T13:13:28.552Z,10.13
2018-12-17T13:15:57.027Z,8.27
2018-12-17T13:18:25.545Z,8.70
2018-12-17T13:20:54.288Z,18.43
2018-12-17T13:23:22.765Z,11.53
2018-12-17T13:25:51.199Z,16.13
2018-12-17T13:28:19.694Z,13.47
2018-12-17T13:30:48.706Z,10.60
2018-12-17T13:33:18.283Z,7.20
2018-12-17T13:35:47.816Z,11.10
2018-12-17T13:38:17.045Z,14.40
2018-12-17T13:40:46.293Z,9.27
2018-12-17T13:43:15.191Z,13.43
2018-12-17T13:48:38.057Z,10.97
2018-12-17T13:51:12.102Z,12.63
2018-12-17T13:53:40.562Z,10.27
2018-12-17T13:56:09.055Z,14.77
2018-12-17T13:58:37.505Z,14.00
2018-12-17T14:01:06.042Z,8.03
2018-12-17T14:06:21.464Z,13.43
2018-12-17T14:08:50.123Z,15.77
2018-12-17T14:11:19.453Z,7.73
2018-12-17T14:13:48.075Z,11.60
2018-12-17T14:16:19.777Z,9.50
2018-12-17T14:18:53.717Z,16.43
2018-12-17T14:21:27.865Z,10.80
2018-12-17T14:23:56.367Z,12.67
2018-12-17T14:26:24.801Z,15.90
2018-12-17T14:28:53.254Z,13.20
2018-12-17T14:31:28.586Z,15.33
2018-12-17T14:33:52.222Z,11.87
2018-12-17T14:36:20.687Z,13.43
2018-12-17T14:38:49.141Z,15.17
2018-12-17T14:41:17.630Z,10.47
2018-12-17T14:43:46.093Z,11.47
2018-12-17T14:46:14.589Z,13.37
2018-12-17T14:48:43.063Z,10.27
2018-12-17T14:51:11.564Z,16.50
2018-12-17T14:53:40.088Z,12.67
2018-12-17T14:56:08.527Z,8.10
2018-12-17T14:58:44.237Z,12.30
2018-12-17T15:01:07.546Z,16.00
2018-12-17T15:03:36.057Z,16.50
2018-12-17T15:06:04.784Z,10.10
2018-12-17T15:08:33.361Z,14.17
2018-12-17T15:11:01.927Z,16.53
2018-12-17T15:13:30.474Z,13.83
2018-12-17T15:15:58.944Z,14.53
2018-12-17T15:18:27.425Z,10.97
2018-12-17T15:20:56.361Z,15.80
2018-12-17T15:23:24.820Z,12.93
2018-12-17T15:25:53.402Z,15.40
2018-12-17T15:28:22.003Z,12.23
2018-12-17T15:30:50.577Z,12.87
2018-12-17T15:33:19.019Z,10.83
2018-12-17T15:35:47.628Z,16.13
2018-12-17T15:38:17.589Z,14.50
2018-12-17T15:40:46.194Z,16.17
2018-12-17T15:43:14.724Z,16.17
2018-12-17T15:45:43.273Z,15.53
2018-12-17T15:48:14.679Z,16.00
2018-12-17T15:50:43.315Z,19.27
2018-12-17T15:53:11.901Z,17.57
2018-12-17T15:55:40.537Z,17.77
2018-12-17T15:58:09.070Z,18.77
2018-12-17T16:00:37.536Z,18.30
2018-12-17T16:03:06.247Z,16.23
2018-12-17T16:05:34.735Z,18.67
2018-12-17T16:08:03.238Z,12.30
2018-12-17T16:10:32.097Z,12.83
2018-12-17T16:13:07.109Z,13.40
2018-12-17T16:15:35.577Z,11.67
2018-12-17T16:18:04.051Z,9.73
2018-12-17T16:20:32.797Z,11.97
2018-12-17T16:23:01.665Z,13.83
2018-12-17T16:25:30.826Z,17.90
2018-12-17T16:27:59.391Z,10.70
2018-12-17T16:30:27.966Z,17.97
2018-12-17T16:32:56.478Z,11.33
2018-12-17T16:35:25.050Z,11.60
2018-12-17T16:37:53.636Z,17.40
2018-12-17T16:40:22.687Z,18.20
2018-12-17T16:42:51.209Z,14.20
2018-12-17T16:45:20.034Z,16.20
2018-12-17T16:47:48.539Z,14.73
2018-12-17T16:50:17.209Z,13.33
2018-12-17T16:52:45.855Z,10.03
2018-12-17T16:55:14.337Z,16.80
2018-12-17T16:57:43.558Z,14.23
2018-12-17T17:00:12.216Z,12.27
2018-12-17T17:02:44.531Z,12.67
2018-12-17T17:05:13.204Z,15.70
2018-12-17T17:10:32.058Z,14.23
2018-12-17T17:13:00.724Z,13.20
2018-12-17T17:15:29.247Z,14.33
2018-12-17T17:17:57.735Z,13.07
2018-12-17T17:20:26.433Z,19.07
2018-12-17T17:22:54.936Z,19.23
2018-12-17T17:25:23.522Z,16.50
2018-12-17T17:27:51.956Z,15.23
2018-12-17T17:30:20.498Z,10.77
2018-12-17T17:32:49.105Z,13.90
2018-12-17T17:35:17.627Z,14.10
2018-12-17T17:37:46.116Z,14.43
2018-12-17T17:40:15.062Z,16.70
2018-12-17T17:42:43.556Z,35.27
2018-12-17T17:45:12.029Z,14.43
2018-12-17T17:47:40.548Z,16.30
2018-12-17T17:50:09.284Z,11.90
2018-12-17T17:52:37.724Z,16.27
2018-12-17T17:55:06.484Z,13.60
2018-12-17T17:57:34.930Z,20.53
2018-12-17T18:00:03.967Z,21.83
2018-12-17T18:02:32.398Z,25.03
2018-12-17T18:05:00.846Z,22.50
2018-12-17T18:07:29.307Z,20.73
2018-12-17T18:09:57.902Z,23.93
2018-12-17T18:12:26.416Z,19.67
2018-12-17T18:14:54.885Z,21.30
2018-12-17T18:17:23.443Z,22.77
2018-12-17T18:19:51.900Z,21.07
2018-12-17T18:22:20.385Z,19.60
2018-12-17T18:24:48.873Z,21.20
2018-12-17T18:27:17.925Z,24.17
2018-12-17T18:29:46.393Z,27.80
2018-12-17T18:32:16.778Z,22.87
2018-12-17T18:34:48.731Z,23.63
2018-12-17T18:37:27.773Z,26.90
2018-12-17T18:39:56.624Z,26.97
2018-12-17T18:43:05.604Z,24.50
2018-12-17T18:45:50.568Z,25.30
2018-12-17T18:48:23.101Z,26.90
2018-12-17T18:50:54.251Z,24.90
2018-12-17T18:53:22.758Z,21.30
2018-12-17T18:55:51.462Z,16.70
2018-12-17T18:58:19.901Z,19.57
2018-12-17T19:00:48.396Z,22.10
2018-12-17T19:03:16.961Z,19.17
2018-12-17T19:05:45.887Z,21.93
2018-12-17T19:08:14.356Z,15.07
2018-12-17T19:10:48.047Z,26.07
2018-12-17T19:13:16.567Z,19.13
2018-12-17T19:15:45.025Z,15.23
2018-12-17T19:18:13.999Z,18.17
2018-12-17T19:20:42.509Z,20.00
2018-12-17T19:23:11.092Z,22.37
2018-12-17T19:25:40.195Z,23.97
2018-12-17T19:28:08.970Z,26.37
2018-12-17T19:30:37.467Z,21.17
2018-12-17T19:33:06.455Z,16.90
2018-12-17T19:35:34.947Z,21.40
2018-12-17T19:38:03.588Z,18.53
2018-12-17T19:40:32.404Z,17.13
2018-12-17T19:43:01.209Z,22.20
2018-12-17T19:45:29.873Z,24.50
2018-12-17T19:47:59.128Z,16.13
2018-12-17T19:50:27.655Z,17.50
2018-12-17T19:52:56.269Z,21.77
2018-12-17T19:55:24.844Z,22.10
2018-12-17T19:57:53.334Z,19.10
2018-12-17T20:00:21.987Z,15.13
2018-12-17T20:02:50.451Z,15.57
2018-12-17T20:05:19.451Z,13.20
2018-12-17T20:07:48.018Z,19.10
2018-12-17T20:10:26.348Z,19.87
2018-12-17T20:12:59.745Z,20.57
2018-12-17T20:15:31.859Z,17.97
2018-12-17T20:18:08.665Z,14.63
2018-12-17T20:20:38.480Z,17.63
2018-12-17T20:23:12.168Z,18.37
2018-12-17T20:25:43.091Z,15.60
2018-12-17T20:28:13.520Z,19.07
2018-12-17T20:30:46.245Z,13.20
2018-12-17T20:33:21.532Z,14.93
2018-12-17T20:35:52.276Z,15.03
2018-12-17T20:38:28.771Z,19.53
2018-12-17T20:44:00.681Z,18.50
2018-12-17T20:46:33.767Z,19.37
2018-12-17T20:49:04.954Z,19.67
2018-12-17T20:51:38.145Z,19.47
2018-12-17T20:54:09.359Z,16.03
2018-12-17T20:56:42.283Z,20.70
2018-12-17T20:59:11.856Z,19.57
2018-12-17T21:01:48.031Z,15.77
2018-12-17T21:04:21.547Z,18.03
2018-12-17T21:06:54.698Z,20.20
2018-12-17T21:09:31.267Z,15.77
2018-12-17T21:12:06.379Z,17.87
2018-12-17T21:14:41.134Z,17.37
2018-12-17T21:17:12.910Z,20.57
2018-12-17T21:19:51.072Z,18.40
2018-12-17T21:22:27.330Z,16.63
2018-12-17T21:25:03.278Z,17.60
2018-12-17T21:27:42.137Z,14.47
2018-12-17T21:30:12.120Z,18.17
2018-12-17T21:32:41.006Z,17.70
2018-12-17T21:35:09.734Z,13.37
2018-12-17T21:37:38.805Z,16.03
2018-12-17T21:40:10.735Z,16.17
2018-12-17T21:42:39.926Z,14.27
2018-12-17T21:45:08.454Z,18.23
2018-12-17T21:47:36.974Z,17.90
2018-12-17T21:50:07.060Z,15.67
2018-12-17T21:52:35.510Z,13.83
2018-12-17T21:55:04.534Z,15.20
2018-12-17T21:57:34.583Z,16.93
2018-12-17T22:00:15.896Z,14.10
2018-12-17T22:02:49.672Z,13.27
2018-12-17T22:05:25.445Z,13.13
2018-12-17T22:07:56.985Z,21.47
2018-12-17T22:10:31.685Z,18.07
2018-12-17T22:13:07.055Z,15.07
2018-12-17T22:15:44.652Z,16.27
2018-12-17T22:18:14.435Z,16.80
2018-12-17T22:20:50.445Z,19.57
2018-12-17T22:26:02.167Z,19.23
2018-12-17T22:28:35.583Z,19.33
2018-12-17T22:31:07.030Z,26.93
2018-12-17T22:33:38.390Z,19.50
2018-12-17T22:36:15.569Z,20.57
2018-12-17T22:38:49.709Z,18.40
2018-12-17T22:41:32.734Z,21.47
2018-12-17T22:44:09.639Z,20.17
2018-12-17T22:46:47.269Z,20.53
2018-12-17T22:49:21.921Z,22.47
2018-12-17T22:51:55.039Z,19.23
2018-12-17T22:54:26.429Z,21.97
2018-12-17T22:57:04.116Z,20.00
2018-12-17T22:59:33.315Z,17.43
2018-12-17T23:02:17.141Z,15.97
2018-12-17T23:05:02.292Z,17.43
2018-12-17T23:07:43.477Z,15.63
2018-12-17T23:10:28.753Z,13.80
2018-12-17T23:13:09.282Z,18.57
2018-12-17T23:15:54.767Z,16.77
2018-12-17T23:18:23.672Z,18.77
2018-12-17T23:21:04.415Z,21.23
2018-12-17T23:23:37.693Z,16.60
2018-12-17T23:26:09.578Z,11.73
2018-12-17T23:28:39.463Z,23.13
2018-12-17T23:31:26.617Z,18.33
2018-12-17T23:33:59.447Z,18.87
2018-12-17T23:36:39.087Z,23.17
2018-12-17T23:39:18.425Z,16.83
2018-12-17T23:41:53.272Z,23.07
2018-12-17T23:44:27.029Z,15.87
2018-12-17T23:46:57.418Z,17.83
2018-12-17T23:49:33.047Z,18.53
2018-12-17T23:52:06.861Z,20.63
2018-12-17T23:54:44.876Z,12.83
2018-12-17T23:57:25.256Z,17.47
2018-12-17T23:59:59.631Z,15.30
